Time;durP1;ratioP1;P1;durP2;ratioP2;P2;SDS_P1;SDS_P2;PMS_P1;PMS_P2;Temp;Humidity;BMP_temperature;BMP_pressure;BME280_temperature;BME280_humidity;BME280_pressure;Samples;Min_cycle;Max_cycle;Signal;HPM_P1;HPM_P2
2021/11/30 00:01:39;;;;;;;2.80;0.80;;;;;;;;;;5007087;28;20699;-57
2021/11/30 00:04:05;;;;;;;2.10;0.70;;;;;;;;;;5000901;28;20535;-56
2021/11/30 00:06:34;;;;;;;4.85;0.70;;;;;;;;;;5008106;28;20096;-57
2021/11/30 00:09:21;;;;;;;2.85;0.77;;;;;;;;;;5007943;28;20042;-58
2021/11/30 00:11:48;;;;;;;1.05;0.40;;;;;;;;;;5007976;28;20103;-57
2021/11/30 00:14:14;;;;;;;2.28;0.60;;;;;;;;;;5010518;28;20053;-58
2021/11/30 00:16:39;;;;;;;3.25;0.60;;;;;;;;;;5008294;28;20034;-56
2021/11/30 00:19:05;;;;;;;1.58;0.50;;;;;;;;;;5007310;28;20045;-56
2021/11/30 00:21:31;;;;;;;1.55;0.60;;;;;;;;;;5008020;28;20071;-56
2021/11/30 00:23:57;;;;;;;3.33;0.82;;;;;;;;;;5007287;28;20048;-56
2021/11/30 00:26:24;;;;;;;2.40;0.70;;;;;;;;;;5007861;28;20042;-56
2021/11/30 00:28:49;;;;;;;3.72;0.95;;;;;;;;;;5006482;28;20068;-56
2021/11/30 00:31:15;;;;;;;3.15;0.60;;;;;;;;;;5006497;28;20057;-56
2021/11/30 00:33:42;;;;;;;2.90;0.57;;;;;;;;;;5007730;28;20462;-57
2021/11/30 00:36:07;;;;;;;5.75;1.02;;;;;;;;;;5009328;28;20034;-57
2021/11/30 00:38:33;;;;;;;6.30;0.98;;;;;;;;;;5005756;28;20521;-56
2021/11/30 00:40:59;;;;;;;2.63;0.93;;;;;;;;;;5007294;28;20073;-57
2021/11/30 00:43:32;;;;;;;3.40;0.77;;;;;;;;;;4989715;28;20908;-58
2021/11/30 00:46:01;;;;;;;3.83;1.10;;;;;;;;;;5009404;28;20038;-54
2021/11/30 00:48:31;;;;;;;11.18;0.80;;;;;;;;;;5007009;28;20121;-56
2021/11/30 00:50:59;;;;;;;3.83;0.65;;;;;;;;;;5008140;28;20140;-57
2021/11/30 00:53:24;;;;;;;6.22;0.80;;;;;;;;;;4989313;28;20046;-54
2021/11/30 00:55:51;;;;;;;2.95;0.90;;;;;;;;;;5007022;28;20112;-56
2021/11/30 00:58:16;;;;;;;9.73;1.20;;;;;;;;;;5006383;28;20135;-56
2021/11/30 01:00:43;;;;;;;3.30;0.80;;;;;;;;;;5006881;28;20129;-53
2021/11/30 01:03:09;;;;;;;4.50;1.20;;;;;;;;;;5008127;28;20060;-55
2021/11/30 01:05:36;;;;;;;4.65;1.33;;;;;;;;;;5009067;28;20033;-56
2021/11/30 01:08:03;;;;;;;2.80;1.10;;;;;;;;;;5007794;28;20083;-56
2021/11/30 01:10:29;;;;;;;8.10;1.23;;;;;;;;;;5005476;28;20143;-56
2021/11/30 01:12:55;;;;;;;2.97;1.02;;;;;;;;;;5008687;28;20113;-56
2021/11/30 01:15:21;;;;;;;5.13;1.23;;;;;;;;;;5008989;28;20038;-56
2021/11/30 01:17:48;;;;;;;4.18;1.23;;;;;;;;;;5007644;28;20280;-56
2021/11/30 01:20:14;;;;;;;4.78;1.35;;;;;;;;;;5008789;28;20052;-55
2021/11/30 01:22:40;;;;;;;5.40;1.30;;;;;;;;;;5006984;28;20081;-57
2021/11/30 01:25:06;;;;;;;4.78;0.88;;;;;;;;;;5008198;28;20038;-55
2021/11/30 01:27:32;;;;;;;8.43;1.50;;;;;;;;;;5008092;28;20053;-54
2021/11/30 01:29:58;;;;;;;3.08;1.10;;;;;;;;;;5008948;28;20406;-56
2021/11/30 01:32:24;;;;;;;7.30;1.27;;;;;;;;;;5008791;28;20431;-54
2021/11/30 01:34:50;;;;;;;8.23;1.30;;;;;;;;;;5009633;28;20045;-56
2021/11/30 01:37:16;;;;;;;13.93;1.27;;;;;;;;;;5006544;28;20101;-56
2021/11/30 01:39:43;;;;;;;3.65;1.13;;;;;;;;;;5006542;28;20541;-57
2021/11/30 01:42:12;;;;;;;2.58;1.02;;;;;;;;;;5009103;28;20991;-57
2021/11/30 01:47:08;;;;;;;4.30;1.08;;;;;;;;;;5007989;28;20080;-54
2021/11/30 01:49:35;;;;;;;3.83;1.23;;;;;;;;;;5007737;28;20057;-56
2021/11/30 01:52:05;;;;;;;3.90;1.15;;;;;;;;;;5009530;28;20038;-57
2021/11/30 01:54:31;;;;;;;3.45;1.00;;;;;;;;;;5008606;28;20042;-55
2021/11/30 01:56:57;;;;;;;3.42;1.00;;;;;;;;;;5007681;28;20124;-57
2021/11/30 01:59:23;;;;;;;4.30;1.00;;;;;;;;;;5007061;28;20041;-55
2021/11/30 02:01:50;;;;;;;3.75;1.13;;;;;;;;;;5009733;28;20877;-55
2021/11/30 02:04:16;;;;;;;2.78;0.80;;;;;;;;;;5007513;28;20057;-55
2021/11/30 02:06:42;;;;;;;2.35;0.90;;;;;;;;;;5005796;28;20037;-57
2021/11/30 02:09:08;;;;;;;5.22;1.10;;;;;;;;;;5005949;28;20077;-56
2021/11/30 02:11:34;;;;;;;3.85;1.10;;;;;;;;;;4987876;28;20952;-56
2021/11/30 02:14:00;;;;;;;3.08;1.10;;;;;;;;;;5006777;28;20473;-56
2021/11/30 02:16:26;;;;;;;7.25;1.10;;;;;;;;;;5010196;28;20037;-55
2021/11/30 02:18:55;;;;;;;2.83;0.90;;;;;;;;;;5007950;28;20411;-56
2021/11/30 02:21:23;;;;;;;2.55;0.90;;;;;;;;;;5005275;28;20049;-57
2021/11/30 02:23:59;;;;;;;8.18;1.40;;;;;;;;;;5007275;28;20041;-54
2021/11/30 02:26:25;;;;;;;4.80;1.00;;;;;;;;;;5007415;28;20041;-57
2021/11/30 02:28:55;;;;;;;4.50;1.10;;;;;;;;;;5007926;28;20054;-55
2021/11/30 02:31:21;;;;;;;3.63;1.05;;;;;;;;;;5007031;28;20116;-55
2021/11/30 02:33:48;;;;;;;16.90;1.63;;;;;;;;;;5007265;28;20033;-54
2021/11/30 02:36:15;;;;;;;6.85;1.13;;;;;;;;;;5007382;28;20108;-56
2021/11/30 02:38:41;;;;;;;11.80;2.13;;;;;;;;;;5005809;28;20045;-56
2021/11/30 02:41:07;;;;;;;11.93;2.45;;;;;;;;;;5004611;28;20038;-55
2021/11/30 02:43:32;;;;;;;10.15;1.90;;;;;;;;;;5008690;28;20048;-56
2021/11/30 02:45:58;;;;;;;8.73;1.98;;;;;;;;;;5011644;28;20076;-55
2021/11/30 02:48:24;;;;;;;9.38;1.85;;;;;;;;;;5011398;28;20040;-54
2021/11/30 02:50:51;;;;;;;7.35;1.40;;;;;;;;;;5011142;28;20045;-56
2021/11/30 02:53:20;;;;;;;7.32;1.70;;;;;;;;;;5010798;28;20046;-54
2021/11/30 02:55:46;;;;;;;4.35;1.58;;;;;;;;;;5009692;28;20034;-56
2021/11/30 02:58:13;;;;;;;8.30;1.88;;;;;;;;;;5008723;28;20109;-55
2021/11/30 03:00:40;;;;;;;10.13;1.88;;;;;;;;;;5008745;28;20052;-55
2021/11/30 03:03:06;;;;;;;6.30;1.60;;;;;;;;;;5011154;28;20458;-54
2021/11/30 03:05:32;;;;;;;5.18;1.63;;;;;;;;;;5007339;28;20137;-56
2021/11/30 03:07:58;;;;;;;6.68;1.77;;;;;;;;;;5009850;28;20050;-54
2021/11/30 03:10:24;;;;;;;6.80;1.73;;;;;;;;;;5010653;28;20069;-56
2021/11/30 03:12:51;;;;;;;8.52;2.00;;;;;;;;;;5011234;28;20046;-56
2021/11/30 03:15:18;;;;;;;6.25;2.17;;;;;;;;;;5007937;28;20049;-55
2021/11/30 03:17:45;;;;;;;18.70;2.72;;;;;;;;;;5010253;28;20064;-55
2021/11/30 03:20:11;;;;;;;18.10;2.47;;;;;;;;;;5008919;28;20056;-58
2021/11/30 03:22:38;;;;;;;11.18;2.50;;;;;;;;;;5009011;28;20085;-55
2021/11/30 03:25:08;;;;;;;17.63;4.22;;;;;;;;;;5008754;28;20045;-53
2021/11/30 03:27:35;;;;;;;11.40;2.75;;;;;;;;;;4988813;28;20140;-57
2021/11/30 03:30:04;;;;;;;15.13;2.20;;;;;;;;;;5009052;28;20057;-55
2021/11/30 03:35:03;;;;;;;5.95;1.60;;;;;;;;;;5009456;28;20055;-55
2021/11/30 03:37:29;;;;;;;4.72;1.60;;;;;;;;;;5008685;28;20107;-55
2021/11/30 03:39:56;;;;;;;10.15;1.80;;;;;;;;;;5008862;28;20491;-55
2021/11/30 03:42:23;;;;;;;4.13;1.40;;;;;;;;;;5008925;28;20088;-54
2021/11/30 03:44:49;;;;;;;4.70;1.48;;;;;;;;;;5009770;28;20167;-54
2021/11/30 03:47:15;;;;;;;5.10;1.73;;;;;;;;;;5008838;28;20534;-56
2021/11/30 03:49:41;;;;;;;7.22;1.80;;;;;;;;;;5006256;28;20402;-54
2021/11/30 03:52:06;;;;;;;8.10;2.65;;;;;;;;;;5010106;28;20042;-55
2021/11/30 03:54:33;;;;;;;9.13;2.33;;;;;;;;;;5007879;28;20041;-54
2021/11/30 03:56:59;;;;;;;10.18;2.53;;;;;;;;;;5008184;28;20074;-56
2021/11/30 03:59:25;;;;;;;5.97;2.38;;;;;;;;;;5007938;28;21079;-56
2021/11/30 04:01:52;;;;;;;9.60;2.30;;;;;;;;;;5008859;28;20064;-54
2021/11/30 04:04:30;;;;;;;18.10;2.13;;;;;;;;;;5009459;28;20068;-57
2021/11/30 04:06:57;;;;;;;8.52;2.10;;;;;;;;;;5008304;28;20033;-56
2021/11/30 04:09:24;;;;;;;7.70;2.22;;;;;;;;;;5008805;28;20074;-56
2021/11/30 04:11:50;;;;;;;6.88;2.75;;;;;;;;;;5008946;28;20050;-56
2021/11/30 04:14:17;;;;;;;5.95;2.35;;;;;;;;;;5009338;28;20044;-54
2021/11/30 04:16:43;;;;;;;8.13;2.38;;;;;;;;;;5006352;28;20443;-57
2021/11/30 04:19:09;;;;;;;11.38;3.08;;;;;;;;;;5008236;28;20041;-53
2021/11/30 04:21:36;;;;;;;8.05;2.50;;;;;;;;;;5006734;28;20088;-55
2021/11/30 04:24:02;;;;;;;6.47;2.33;;;;;;;;;;5007868;28;20104;-54
2021/11/30 04:26:28;;;;;;;5.75;2.30;;;;;;;;;;5007818;28;20061;-56
2021/11/30 04:28:55;;;;;;;7.20;2.15;;;;;;;;;;5007796;28;20057;-52
2021/11/30 04:31:21;;;;;;;7.28;2.00;;;;;;;;;;5009030;28;20053;-53
2021/11/30 04:33:47;;;;;;;6.53;2.22;;;;;;;;;;5010204;28;20510;-53
2021/11/30 04:36:13;;;;;;;15.20;2.65;;;;;;;;;;5008867;28;20049;-55
2021/11/30 04:38:39;;;;;;;8.70;2.15;;;;;;;;;;5008600;28;20675;-56
2021/11/30 04:41:05;;;;;;;4.93;2.17;;;;;;;;;;4989257;28;20470;-55
2021/11/30 04:43:35;;;;;;;9.68;2.40;;;;;;;;;;5007364;28;20064;-54
2021/11/30 04:46:12;;;;;;;7.10;2.47;;;;;;;;;;5008793;28;20152;-56
2021/11/30 04:48:41;;;;;;;18.63;2.88;;;;;;;;;;5008309;28;20049;-55
2021/11/30 04:51:10;;;;;;;7.32;2.65;;;;;;;;;;5008737;28;20053;-56
2021/11/30 04:53:36;;;;;;;6.40;2.35;;;;;;;;;;5009256;28;20049;-55
2021/11/30 04:56:02;;;;;;;5.38;2.03;;;;;;;;;;5008001;28;20038;-56
2021/11/30 04:58:28;;;;;;;7.38;2.50;;;;;;;;;;5005845;28;20029;-55
2021/11/30 05:00:55;;;;;;;9.75;2.30;;;;;;;;;;5007281;28;20098;-56
2021/11/30 05:03:21;;;;;;;9.27;2.10;;;;;;;;;;5007263;28;20038;-53
2021/11/30 05:05:46;;;;;;;9.10;2.35;;;;;;;;;;5007585;28;20469;-57
2021/11/30 05:08:12;;;;;;;5.40;1.80;;;;;;;;;;5005933;28;20140;-54
2021/11/30 05:10:38;;;;;;;5.45;1.63;;;;;;;;;;5006042;28;20053;-57
2021/11/30 05:13:04;;;;;;;5.95;2.17;;;;;;;;;;5004514;28;20121;-56
2021/11/30 05:15:50;;;;;;;9.70;2.65;;;;;;;;;;4964891;28;20051;-57
2021/11/30 05:18:16;;;;;;;8.75;2.42;;;;;;;;;;4965053;28;20042;-56
2021/11/30 05:20:44;;;;;;;10.98;2.42;;;;;;;;;;4982485;28;20669;-56
2021/11/30 05:23:13;;;;;;;11.10;2.40;;;;;;;;;;4984837;28;20061;-52
2021/11/30 05:25:41;;;;;;;8.27;2.08;;;;;;;;;;4983884;28;20068;-57
2021/11/30 05:28:07;;;;;;;5.65;1.85;;;;;;;;;;4983645;28;20050;-57
2021/11/30 05:30:36;;;;;;;11.73;2.55;;;;;;;;;;4983815;28;20488;-56
2021/11/30 05:33:11;;;;;;;6.40;2.30;;;;;;;;;;4983758;28;20442;-56
2021/11/30 05:35:37;;;;;;;11.20;2.35;;;;;;;;;;4984573;28;20064;-57
2021/11/30 05:38:03;;;;;;;8.07;2.10;;;;;;;;;;4984275;28;20049;-54
2021/11/30 05:40:32;;;;;;;8.30;2.30;;;;;;;;;;4983108;28;20112;-55
2021/11/30 05:42:57;;;;;;;6.57;2.22;;;;;;;;;;4983350;28;20065;-55
2021/11/30 05:45:23;;;;;;;4.82;1.90;;;;;;;;;;4982651;28;20204;-57
2021/11/30 05:47:49;;;;;;;5.63;2.00;;;;;;;;;;4998642;28;20141;-53
2021/11/30 05:50:15;;;;;;;9.10;2.20;;;;;;;;;;5006184;28;20053;-54
2021/11/30 05:52:41;;;;;;;4.53;1.98;;;;;;;;;;5006660;28;20038;-55
2021/11/30 05:55:07;;;;;;;5.97;1.80;;;;;;;;;;5006495;28;20045;-52
2021/11/30 05:57:33;;;;;;;4.65;2.03;;;;;;;;;;5005357;28;20041;-55
2021/11/30 06:00:01;;;;;;;6.03;2.08;;;;;;;;;;5006463;28;20091;-54
2021/11/30 06:02:31;;;;;;;3.53;1.65;;;;;;;;;;5005939;28;20041;-54
2021/11/30 06:04:57;;;;;;;12.48;2.40;;;;;;;;;;5007406;28;20130;-54
2021/11/30 06:07:23;;;;;;;5.43;2.08;;;;;;;;;;5004703;28;20050;-54
2021/11/30 06:09:49;;;;;;;6.32;2.20;;;;;;;;;;5004012;28;20083;-57
2021/11/30 06:12:15;;;;;;;7.13;2.40;;;;;;;;;;5005792;28;20208;-56
2021/11/30 06:14:41;;;;;;;5.82;2.10;;;;;;;;;;5006136;28;20156;-55
2021/11/30 06:17:09;;;;;;;7.38;2.47;;;;;;;;;;5006129;28;20042;-56
2021/11/30 06:19:36;;;;;;;10.30;2.47;;;;;;;;;;5008589;28;20041;-56
2021/11/30 06:22:01;;;;;;;7.60;2.17;;;;;;;;;;5011214;28;20037;-56
2021/11/30 06:24:27;;;;;;;8.85;2.17;;;;;;;;;;5010438;28;20030;-56
2021/11/30 06:26:53;;;;;;;12.80;1.83;;;;;;;;;;5007877;28;20402;-56
2021/11/30 06:29:19;;;;;;;6.65;2.15;;;;;;;;;;5008956;28;20133;-52
2021/11/30 06:31:45;;;;;;;7.03;1.80;;;;;;;;;;5010823;28;20057;-56
2021/11/30 06:34:11;;;;;;;5.88;1.60;;;;;;;;;;5011514;28;20123;-54
2021/11/30 06:36:37;;;;;;;9.77;1.42;;;;;;;;;;5009264;28;20038;-55
2021/11/30 06:39:03;;;;;;;7.80;1.85;;;;;;;;;;5010608;28;20121;-53
2021/11/30 06:41:29;;;;;;;7.75;1.50;;;;;;;;;;5009432;28;20152;-54
2021/11/30 06:43:55;;;;;;;4.97;1.55;;;;;;;;;;5010121;28;20040;-52
2021/11/30 06:46:21;;;;;;;5.90;1.40;;;;;;;;;;5008413;28;20045;-55
2021/11/30 06:48:47;;;;;;;3.70;1.23;;;;;;;;;;5009388;28;20495;-55
2021/11/30 06:51:14;;;;;;;6.85;1.70;;;;;;;;;;5010093;28;21171;-51
2021/11/30 06:53:40;;;;;;;3.67;1.40;;;;;;;;;;5010176;28;20062;-56
2021/11/30 06:56:06;;;;;;;3.58;1.30;;;;;;;;;;4991112;28;20041;-55
2021/11/30 06:58:32;;;;;;;4.60;1.20;;;;;;;;;;5008254;28;20044;-56
2021/11/30 07:00:58;;;;;;;3.20;1.20;;;;;;;;;;4990953;28;20046;-56
2021/11/30 07:03:25;;;;;;;5.00;1.38;;;;;;;;;;5009096;28;20398;-55
2021/11/30 07:05:58;;;;;;;3.47;1.42;;;;;;;;;;4990475;28;20117;-56
2021/11/30 07:08:47;;;;;;;7.37;1.40;;;;;;;;;;5007638;28;20033;-56
2021/11/30 07:11:19;;;;;;;5.38;1.30;;;;;;;;;;5008957;28;20823;-55
2021/11/30 07:13:45;;;;;;;10.80;1.42;;;;;;;;;;5008907;28;20061;-54
2021/11/30 07:16:11;;;;;;;5.70;1.10;;;;;;;;;;5009709;28;20168;-55
2021/11/30 07:18:37;;;;;;;5.57;1.08;;;;;;;;;;5008543;28;20037;-55
2021/11/30 07:21:03;;;;;;;3.20;1.08;;;;;;;;;;4991538;28;20521;-53
2021/11/30 07:23:29;;;;;;;8.02;1.10;;;;;;;;;;5008068;28;20045;-56
2021/11/30 07:25:56;;;;;;;4.20;0.90;;;;;;;;;;5010000;28;20034;-55
2021/11/30 07:28:28;;;;;;;2.95;0.98;;;;;;;;;;5007451;28;20137;-55
2021/11/30 07:30:58;;;;;;;2.80;0.90;;;;;;;;;;5006910;28;20058;-55
2021/11/30 07:33:24;;;;;;;4.43;1.25;;;;;;;;;;5009607;28;20490;-57
2021/11/30 07:35:50;;;;;;;5.40;1.10;;;;;;;;;;5010141;28;20372;-56
2021/11/30 07:38:17;;;;;;;2.80;0.93;;;;;;;;;;5008776;28;20053;-57
2021/11/30 07:40:43;;;;;;;2.80;0.90;;;;;;;;;;4990330;28;20038;-51
2021/11/30 07:43:08;;;;;;;8.13;1.08;;;;;;;;;;5010550;28;20040;-54
2021/11/30 07:45:34;;;;;;;5.78;1.23;;;;;;;;;;5010287;28;20037;-52
2021/11/30 07:48:00;;;;;;;3.83;1.20;;;;;;;;;;5009643;28;20050;-56
2021/11/30 07:50:26;;;;;;;3.95;1.02;;;;;;;;;;5007912;28;20045;-56
2021/11/30 07:52:52;;;;;;;4.05;1.40;;;;;;;;;;5009339;28;20095;-57
2021/11/30 07:55:18;;;;;;;2.15;0.93;;;;;;;;;;5009778;28;20052;-56
2021/11/30 07:57:45;;;;;;;6.80;1.10;;;;;;;;;;5010357;28;20035;-56
2021/11/30 08:00:20;;;;;;;4.95;1.08;;;;;;;;;;5008064;28;20042;-56
2021/11/30 08:02:46;;;;;;;4.05;1.02;;;;;;;;;;5007782;28;20034;-53
2021/11/30 08:05:12;;;;;;;3.13;1.00;;;;;;;;;;5007129;28;20642;-53
2021/11/30 08:07:39;;;;;;;3.67;0.90;;;;;;;;;;5004884;28;20042;-55
2021/11/30 08:10:12;;;;;;;2.35;0.80;;;;;;;;;;5007860;28;20175;-54
2021/11/30 08:12:38;;;;;;;3.10;0.70;;;;;;;;;;5006779;28;20123;-58
2021/11/30 08:15:05;;;;;;;2.85;0.90;;;;;;;;;;4988982;28;20187;-54
2021/11/30 08:17:30;;;;;;;3.38;0.55;;;;;;;;;;5006358;28;20500;-57
2021/11/30 08:19:56;;;;;;;4.22;0.65;;;;;;;;;;4989348;28;20050;-56
2021/11/30 08:22:22;;;;;;;2.17;0.80;;;;;;;;;;5007017;28;20030;-54
2021/11/30 08:24:48;;;;;;;2.13;0.60;;;;;;;;;;5007677;28;20112;-52
2021/11/30 08:27:14;;;;;;;2.08;0.68;;;;;;;;;;5007589;28;20050;-54
2021/11/30 08:29:42;;;;;;;2.40;0.70;;;;;;;;;;5006128;28;20038;-54
2021/11/30 08:32:09;;;;;;;2.33;0.70;;;;;;;;;;5008313;28;20048;-53
2021/11/30 08:34:35;;;;;;;2.20;0.60;;;;;;;;;;5005988;28;20394;-55
2021/11/30 08:37:01;;;;;;;2.85;0.73;;;;;;;;;;5007347;28;20034;-53
2021/11/30 08:39:27;;;;;;;2.45;0.73;;;;;;;;;;5007246;28;20779;-54
2021/11/30 08:41:53;;;;;;;4.40;1.10;;;;;;;;;;5007556;28;20165;-52
2021/11/30 08:44:20;;;;;;;2.35;0.80;;;;;;;;;;5006599;28;20091;-55
2021/11/30 08:46:46;;;;;;;3.55;0.80;;;;;;;;;;5008281;28;20042;-52
2021/11/30 08:49:12;;;;;;;3.15;1.05;;;;;;;;;;5007875;28;20043;-55
2021/11/30 08:51:38;;;;;;;2.50;0.80;;;;;;;;;;5006959;28;20042;-55
2021/11/30 08:54:04;;;;;;;3.85;1.00;;;;;;;;;;5007876;28;20056;-54
2021/11/30 08:56:30;;;;;;;3.40;1.00;;;;;;;;;;5005971;28;20104;-56
2021/11/30 08:58:56;;;;;;;2.40;0.70;;;;;;;;;;5006863;28;20045;-56
2021/11/30 09:01:22;;;;;;;3.75;1.00;;;;;;;;;;4989050;28;20052;-56
2021/11/30 09:03:48;;;;;;;3.25;0.88;;;;;;;;;;5006934;28;20033;-55
2021/11/30 09:06:14;;;;;;;2.45;0.80;;;;;;;;;;5007296;28;20045;-56
2021/11/30 09:08:40;;;;;;;3.00;1.00;;;;;;;;;;5006485;28;20037;-56
2021/11/30 09:11:06;;;;;;;3.47;0.90;;;;;;;;;;5006614;28;20053;-56
2021/11/30 09:13:31;;;;;;;2.72;0.90;;;;;;;;;;5007027;28;20038;-53
2021/11/30 09:15:57;;;;;;;2.22;0.68;;;;;;;;;;5006721;28;20037;-55
2021/11/30 09:18:29;;;;;;;2.47;0.90;;;;;;;;;;5007952;28;20133;-56
2021/11/30 09:20:55;;;;;;;3.63;1.25;;;;;;;;;;5007553;28;20124;-56
2021/11/30 09:23:21;;;;;;;7.85;1.00;;;;;;;;;;5007106;28;20064;-54
2021/11/30 09:25:47;;;;;;;3.92;1.15;;;;;;;;;;5007774;28;20756;-56
2021/11/30 09:28:13;;;;;;;6.43;1.33;;;;;;;;;;5007016;28;20116;-55
2021/11/30 09:30:40;;;;;;;3.38;1.15;;;;;;;;;;5006709;28;20054;-55
2021/11/30 09:33:07;;;;;;;3.10;1.23;;;;;;;;;;5008810;28;20591;-55
2021/11/30 09:35:33;;;;;;;4.35;1.40;;;;;;;;;;4990578;28;21876;-53
2021/11/30 09:37:59;;;;;;;4.88;1.25;;;;;;;;;;5007829;28;20042;-56
2021/11/30 09:40:27;;;;;;;6.43;1.50;;;;;;;;;;5007665;28;20061;-55
2021/11/30 09:42:53;;;;;;;7.32;1.50;;;;;;;;;;5008196;28;20037;-57
2021/11/30 09:45:21;;;;;;;4.13;1.60;;;;;;;;;;4990056;28;21044;-57
2021/11/30 09:47:47;;;;;;;3.50;1.20;;;;;;;;;;5008283;28;20034;-54
2021/11/30 09:50:15;;;;;;;2.85;1.10;;;;;;;;;;5007709;28;20038;-56
2021/11/30 09:52:41;;;;;;;5.57;1.30;;;;;;;;;;5005922;28;20046;-56
2021/11/30 09:55:12;;;;;;;3.47;1.20;;;;;;;;;;5008838;28;20048;-54
2021/11/30 09:57:37;;;;;;;2.75;0.98;;;;;;;;;;5006107;28;20106;-55
2021/11/30 10:00:04;;;;;;;7.47;1.10;;;;;;;;;;5008211;28;20030;-56
2021/11/30 10:02:30;;;;;;;3.15;0.77;;;;;;;;;;5007372;28;20143;-56
2021/11/30 10:04:56;;;;;;;3.22;0.93;;;;;;;;;;5007736;28;20925;-56
2021/11/30 10:07:41;;;;;;;2.80;0.63;;;;;;;;;;5008579;28;20501;-57
2021/11/30 10:10:15;;;;;;;3.33;0.88;;;;;;;;;;5009077;28;20049;-55
2021/11/30 10:12:42;;;;;;;2.10;0.65;;;;;;;;;;5007672;28;20822;-55
2021/11/30 10:15:09;;;;;;;2.25;0.75;;;;;;;;;;5009331;28;20075;-57
2021/11/30 10:17:36;;;;;;;2.20;0.77;;;;;;;;;;5007241;28;21689;-53
2021/11/30 10:20:11;;;;;;;2.95;0.90;;;;;;;;;;5010254;28;20038;-54
2021/11/30 10:22:45;;;;;;;2.40;0.60;;;;;;;;;;5008651;28;20038;-51
2021/11/30 10:25:17;;;;;;;2.35;0.82;;;;;;;;;;5008819;28;20055;-55
2021/11/30 10:27:48;;;;;;;2.50;0.70;;;;;;;;;;5005890;28;20450;-55
2021/11/30 10:30:15;;;;;;;3.28;0.80;;;;;;;;;;5008624;28;20157;-55
2021/11/30 10:32:46;;;;;;;2.55;0.70;;;;;;;;;;5005535;28;20194;-54
2021/11/30 10:35:12;;;;;;;3.95;0.60;;;;;;;;;;5005740;28;20397;-53
2021/11/30 10:37:42;;;;;;;3.00;0.82;;;;;;;;;;5003465;28;20041;-54
2021/11/30 10:40:10;;;;;;;1.58;0.70;;;;;;;;;;5007257;28;20053;-53
2021/11/30 10:42:44;;;;;;;3.53;1.00;;;;;;;;;;4987345;28;20042;-54
2021/11/30 10:45:09;;;;;;;;;;;;;;;;;;5008015;28;20034;-55
2021/11/30 10:47:36;;;;;;;2.40;0.80;;;;;;;;;;5005856;28;19917;-56
2021/11/30 10:50:11;;;;;;;1.83;0.60;;;;;;;;;;5005706;28;20510;-57
2021/11/30 10:52:40;;;;;;;2.05;0.70;;;;;;;;;;5005312;28;21771;-55
2021/11/30 10:55:06;;;;;;;2.17;0.85;;;;;;;;;;5006792;28;20802;-53
2021/11/30 10:57:33;;;;;;;2.80;1.00;;;;;;;;;;5003286;28;20038;-55
2021/11/30 11:00:11;;;;;;;2.50;1.10;;;;;;;;;;4990892;28;20842;-53
2021/11/30 11:02:48;;;;;;;4.18;1.05;;;;;;;;;;5007110;28;20150;-53
2021/11/30 11:05:26;;;;;;;2.40;0.98;;;;;;;;;;5008412;28;20049;-56
2021/11/30 11:08:24;;;;;;;2.65;1.00;;;;;;;;;;5009871;28;20044;-56
2021/11/30 11:10:59;;;;;;;3.83;1.00;;;;;;;;;;4992101;28;20501;-53
2021/11/30 11:13:26;;;;;;;2.80;1.00;;;;;;;;;;5010200;28;20987;-54
2021/11/30 11:15:54;;;;;;;2.88;1.00;;;;;;;;;;5010890;28;20045;-54
2021/11/30 11:18:21;;;;;;;3.30;1.00;;;;;;;;;;5010465;28;20034;-56
2021/11/30 11:20:48;;;;;;;2.47;0.90;;;;;;;;;;5009216;28;20121;-55
2021/11/30 11:23:23;;;;;;;2.53;0.77;;;;;;;;;;5008677;28;20061;-54
2021/11/30 11:25:53;;;;;;;2.47;0.75;;;;;;;;;;4991843;28;20046;-55
2021/11/30 11:28:20;;;;;;;2.67;0.85;;;;;;;;;;4990170;28;20180;-56
2021/11/30 11:30:46;;;;;;;2.30;0.70;;;;;;;;;;5008493;28;20517;-52
2021/11/30 11:33:13;;;;;;;2.72;0.80;;;;;;;;;;5008779;28;20042;-56
2021/11/30 11:35:39;;;;;;;3.88;1.10;;;;;;;;;;5009634;28;20058;-55
2021/11/30 11:38:06;;;;;;;2.80;0.98;;;;;;;;;;4990726;28;20034;-52
2021/11/30 11:40:32;;;;;;;3.05;1.10;;;;;;;;;;5008322;28;20108;-54
2021/11/30 11:42:58;;;;;;;2.65;0.90;;;;;;;;;;5008527;28;20430;-54
2021/11/30 11:45:24;;;;;;;4.50;1.25;;;;;;;;;;5009390;28;21896;-54
2021/11/30 11:47:50;;;;;;;4.70;1.15;;;;;;;;;;5007914;28;20038;-56
2021/11/30 11:50:17;;;;;;;4.32;1.50;;;;;;;;;;5008416;28;20082;-56
2021/11/30 11:52:43;;;;;;;3.75;1.35;;;;;;;;;;5008953;28;20046;-53
2021/11/30 11:55:13;;;;;;;4.53;1.30;;;;;;;;;;5006735;28;20401;-55
2021/11/30 11:57:43;;;;;;;3.15;1.20;;;;;;;;;;5006103;28;20038;-54
2021/11/30 12:00:16;;;;;;;3.83;1.20;;;;;;;;;;5007488;28;20049;-55
2021/11/30 12:02:52;;;;;;;5.90;1.48;;;;;;;;;;5008511;28;20042;-54
2021/11/30 12:05:37;;;;;;;3.45;1.02;;;;;;;;;;5009113;28;20121;-52
2021/11/30 12:08:04;;;;;;;2.92;1.10;;;;;;;;;;5007503;28;20038;-53
2021/11/30 12:10:31;;;;;;;4.30;1.38;;;;;;;;;;5007554;28;20131;-55
2021/11/30 12:13:00;;;;;;;3.70;1.15;;;;;;;;;;4993547;28;20041;-57
2021/11/30 12:15:31;;;;;;;6.72;1.13;;;;;;;;;;5008605;28;20044;-55
2021/11/30 12:18:15;;;;;;;3.15;0.98;;;;;;;;;;5008039;28;20041;-54
2021/11/30 12:20:45;;;;;;;3.45;1.05;;;;;;;;;;5009129;28;20029;-56
2021/11/30 12:23:11;;;;;;;3.85;1.17;;;;;;;;;;5009324;28;20030;-55
2021/11/30 12:25:47;;;;;;;3.45;1.20;;;;;;;;;;5007323;28;20490;-57
2021/11/30 12:28:31;;;;;;;3.40;1.10;;;;;;;;;;5008479;28;20054;-56
2021/11/30 12:30:58;;;;;;;3.28;1.05;;;;;;;;;;5008682;28;20053;-56
2021/11/30 12:33:28;;;;;;;3.10;0.90;;;;;;;;;;5007881;28;20041;-56
2021/11/30 12:35:58;;;;;;;2.40;0.80;;;;;;;;;;5006558;28;20041;-55
2021/11/30 12:38:29;;;;;;;3.35;0.80;;;;;;;;;;4990469;28;20794;-55
2021/11/30 12:40:56;;;;;;;2.65;0.85;;;;;;;;;;4990767;28;20091;-55
2021/11/30 12:43:23;;;;;;;0.88;0.45;;;;;;;;;;5003269;28;20065;-55
2021/11/30 12:45:56;;;;;;;2.15;0.70;;;;;;;;;;5007901;28;20521;-54
2021/11/30 12:48:25;;;;;;;2.10;0.77;;;;;;;;;;5007786;28;20052;-57
2021/11/30 12:50:58;;;;;;;1.67;0.57;;;;;;;;;;5008950;28;20049;-56
2021/11/30 12:53:42;;;;;;;2.03;0.57;;;;;;;;;;5007447;28;20026;-55
2021/11/30 12:56:07;;;;;;;;;;;;;;;;;;5009019;28;20037;-57
2021/11/30 12:58:44;;;;;;;1.95;0.60;;;;;;;;;;5008589;28;19917;-55
2021/11/30 13:01:12;;;;;;;3.17;0.73;;;;;;;;;;5009299;28;20372;-56
2021/11/30 13:03:38;;;;;;;2.15;0.65;;;;;;;;;;5008550;28;20073;-56
2021/11/30 13:06:04;;;;;;;3.20;0.70;;;;;;;;;;5009047;28;20041;-52
2021/11/30 13:08:30;;;;;;;4.25;0.80;;;;;;;;;;5008889;28;20042;-55
2021/11/30 13:10:56;;;;;;;6.97;0.88;;;;;;;;;;5008908;28;20103;-56
2021/11/30 13:13:26;;;;;;;4.18;1.00;;;;;;;;;;5006208;28;20042;-51
2021/11/30 13:15:52;;;;;;;3.40;0.90;;;;;;;;;;5008981;28;20060;-55
2021/11/30 13:18:18;;;;;;;5.05;1.42;;;;;;;;;;5007917;28;20514;-56
2021/11/30 13:20:45;;;;;;;6.15;1.17;;;;;;;;;;5009667;28;20103;-55
2021/11/30 13:23:11;;;;;;;4.07;1.00;;;;;;;;;;5008321;28;20034;-54
2021/11/30 13:25:38;;;;;;;3.15;0.98;;;;;;;;;;5009263;28;20037;-55
2021/11/30 13:28:23;;;;;;;10.60;1.60;;;;;;;;;;5007285;28;20474;-54
2021/11/30 13:30:51;;;;;;;6.53;0.98;;;;;;;;;;5007593;28;20099;-56
2021/11/30 13:33:21;;;;;;;4.95;1.60;;;;;;;;;;5005109;28;20038;-56
2021/11/30 13:35:52;;;;;;;5.45;1.40;;;;;;;;;;5007940;28;20125;-52
2021/11/30 13:38:20;;;;;;;6.18;1.20;;;;;;;;;;5007374;28;20033;-55
2021/11/30 13:40:53;;;;;;;4.05;1.10;;;;;;;;;;5008845;28;20037;-53
2021/11/30 13:43:19;;;;;;;;;;;;;;;;;;5006905;28;20235;-53
2021/11/30 13:45:50;;;;;;;4.47;1.10;;;;;;;;;;5007801;28;19986;-54
2021/11/30 13:48:21;;;;;;;3.90;0.93;;;;;;;;;;5008345;28;20042;-54
2021/11/30 13:50:47;;;;;;;4.55;0.98;;;;;;;;;;4989475;28;20410;-55
2021/11/30 13:53:15;;;;;;;6.22;0.95;;;;;;;;;;5007041;28;20106;-54
2021/11/30 13:55:44;;;;;;;4.03;1.40;;;;;;;;;;4988487;28;20038;-51
2021/11/30 13:58:21;;;;;;;2.72;1.08;;;;;;;;;;5007034;28;20145;-53
2021/11/30 14:00:58;;;;;;;5.30;1.17;;;;;;;;;;5005094;28;20045;-55
2021/11/30 14:03:43;;;;;;;3.92;1.20;;;;;;;;;;5005222;28;20038;-54
2021/11/30 14:06:18;;;;;;;3.85;1.00;;;;;;;;;;5008412;28;20038;-55
2021/11/30 14:08:44;;;;;;;7.63;1.33;;;;;;;;;;4998723;28;20119;-57
2021/11/30 14:11:13;;;;;;;8.35;1.50;;;;;;;;;;5006256;28;20049;-57
2021/11/30 14:13:39;;;;;;;4.85;1.30;;;;;;;;;;5005629;28;20082;-58
2021/11/30 14:16:05;;;;;;;9.35;1.63;;;;;;;;;;5007385;28;20038;-57
2021/11/30 14:18:31;;;;;;;8.82;1.55;;;;;;;;;;5006298;28;20072;-56
2021/11/30 14:21:12;;;;;;;4.88;1.25;;;;;;;;;;5006332;28;20038;-53
2021/11/30 14:23:37;;;;;;;4.28;1.30;;;;;;;;;;4986333;28;20827;-56
2021/11/30 14:26:03;;;;;;;4.55;1.00;;;;;;;;;;5006947;28;20132;-55
2021/11/30 14:28:29;;;;;;;3.08;1.10;;;;;;;;;;5006387;28;20077;-55
2021/11/30 14:30:57;;;;;;;2.38;0.82;;;;;;;;;;5007243;28;20058;-56
2021/11/30 14:33:23;;;;;;;5.05;1.58;;;;;;;;;;5007152;28;20038;-54
2021/11/30 14:35:50;;;;;;;6.10;1.30;;;;;;;;;;5009175;28;20046;-53
2021/11/30 14:38:26;;;;;;;11.00;1.58;;;;;;;;;;5007713;28;20042;-56
2021/11/30 14:40:52;;;;;;;10.75;1.88;;;;;;;;;;5011331;28;20449;-56
2021/11/30 14:43:19;;;;;;;3.80;1.23;;;;;;;;;;5010865;28;20041;-56
2021/11/30 14:45:47;;;;;;;10.98;1.48;;;;;;;;;;5011951;28;20042;-57
2021/11/30 14:48:21;;;;;;;7.60;1.33;;;;;;;;;;5010843;28;20521;-56
2021/11/30 14:50:48;;;;;;;9.43;1.40;;;;;;;;;;5010141;28;20447;-56
2021/11/30 14:53:14;;;;;;;4.30;1.45;;;;;;;;;;5007681;28;20048;-56